createdAt,value
2022-12-05T00:00:04.323Z,1.19
2022-12-05T00:01:04.227Z,1.19
2022-12-05T00:02:04.210Z,1.19
2022-12-05T00:03:04.064Z,1.19
2022-12-05T00:04:04.238Z,1.19
2022-12-05T00:05:04.145Z,1.19
2022-12-05T00:06:04.057Z,1.19
2022-12-05T00:07:03.983Z,1.19
2022-12-05T00:08:04.060Z,1.25
2022-12-05T00:09:03.820Z,1.19
2022-12-05T00:10:03.733Z,1.25
2022-12-05T00:11:03.740Z,1.25
2022-12-05T00:12:03.662Z,1.25
2022-12-05T00:13:03.622Z,1.25
2022-12-05T00:14:03.549Z,1.19
2022-12-05T00:15:04.385Z,1.19
2022-12-05T00:16:04.430Z,1.25
2022-12-05T00:17:04.521Z,1.19
2022-12-05T00:18:04.378Z,1.25
2022-12-05T00:19:04.217Z,1.25
2022-12-05T00:20:04.153Z,1.25
2022-12-05T00:21:04.060Z,1.19
2022-12-05T00:22:03.979Z,1.25
2022-12-05T00:23:03.989Z,1.25
2022-12-05T00:24:03.906Z,1.25
2022-12-05T00:25:03.839Z,1.25
2022-12-05T00:26:03.738Z,1.25
2022-12-05T00:27:03.586Z,1.19
2022-12-05T00:28:03.588Z,1.25
2022-12-05T00:29:03.501Z,1.19
2022-12-05T00:30:04.473Z,1.25
2022-12-05T00:31:04.304Z,1.25
2022-12-05T00:32:04.240Z,1.19
2022-12-05T00:33:04.136Z,1.19
2022-12-05T00:34:04.225Z,1.25
2022-12-05T00:35:04.306Z,1.25
2022-12-05T00:36:04.155Z,1.25
2022-12-05T00:37:04.138Z,1.25
2022-12-05T00:38:04.065Z,1.25
2022-12-05T00:39:04.150Z,1.25
2022-12-05T00:40:03.908Z,1.25
2022-12-05T00:41:03.820Z,1.25
2022-12-05T00:42:03.898Z,1.19
2022-12-05T00:43:03.816Z,1.19
2022-12-05T00:44:03.827Z,1.19
2022-12-05T00:45:03.663Z,1.19
2022-12-05T00:46:03.671Z,1.19
2022-12-05T00:47:03.530Z,1.25
2022-12-05T00:48:03.511Z,1.25
2022-12-05T00:49:04.395Z,1.25
2022-12-05T00:50:04.302Z,1.25
2022-12-05T00:51:04.217Z,1.25
2022-12-05T00:52:04.142Z,1.25
2022-12-05T00:53:04.138Z,1.25
2022-12-05T00:54:04.156Z,1.25
2022-12-05T00:55:04.066Z,1.25
2022-12-05T00:56:03.986Z,1.25
2022-12-05T00:57:03.817Z,1.25
2022-12-05T00:58:03.740Z,1.25
2022-12-05T00:59:03.667Z,1.25
2022-12-05T01:00:03.662Z,1.19
2022-12-05T01:01:03.593Z,1.25
2022-12-05T01:02:03.422Z,1.19
2022-12-05T01:03:04.399Z,1.19
2022-12-05T01:04:04.380Z,1.19
2022-12-05T01:05:04.382Z,1.19
2022-12-05T01:06:04.225Z,1.19
2022-12-05T01:07:04.149Z,1.25
2022-12-05T01:08:04.083Z,1.25
2022-12-05T01:09:03.904Z,1.19
2022-12-05T01:10:03.992Z,1.25
2022-12-05T01:11:04.058Z,1.25
2022-12-05T01:12:03.983Z,1.25
2022-12-05T01:13:03.975Z,1.25
2022-12-05T01:14:03.987Z,1.25
2022-12-05T01:15:03.831Z,1.25
2022-12-05T01:16:03.735Z,1.25
2022-12-05T01:17:03.777Z,1.19
2022-12-05T01:18:03.747Z,1.19
2022-12-05T01:19:03.580Z,1.25
2022-12-05T01:20:03.586Z,1.19
2022-12-05T01:21:03.416Z,1.19
2022-12-05T01:22:04.386Z,1.19
2022-12-05T01:23:04.300Z,1.25
2022-12-05T01:24:04.312Z,1.25
2022-12-05T01:25:04.141Z,1.19
2022-12-05T01:26:04.232Z,1.25
2022-12-05T01:27:04.227Z,1.19
2022-12-05T01:28:04.065Z,1.25
2022-12-05T01:29:04.035Z,1.25
2022-12-05T01:30:03.904Z,1.19
2022-12-05T01:31:03.741Z,1.19
2022-12-05T01:32:03.780Z,1.19
2022-12-05T01:33:03.673Z,1.19
2022-12-05T01:34:03.660Z,1.19
2022-12-05T01:35:03.583Z,1.19
2022-12-05T01:36:03.591Z,1.19
2022-12-05T01:37:03.499Z,1.19
2022-12-05T01:38:03.509Z,1.19
2022-12-05T01:39:04.378Z,1.19
2022-12-05T01:40:04.226Z,1.19
2022-12-05T01:41:04.305Z,1.19
2022-12-05T01:42:04.241Z,1.19
2022-12-05T01:43:04.065Z,1.19
2022-12-05T01:44:03.985Z,1.19
2022-12-05T01:45:03.905Z,1.19
2022-12-05T01:46:03.874Z,1.19
2022-12-05T01:47:03.745Z,1.19
2022-12-05T01:48:03.744Z,1.19
2022-12-05T01:49:03.499Z,1.19
2022-12-05T01:50:03.589Z,1.19
2022-12-05T01:51:03.506Z,1.19
2022-12-05T01:52:03.441Z,1.19
2022-12-05T01:53:04.463Z,1.19
2022-12-05T01:54:04.421Z,1.19
2022-12-05T01:55:04.299Z,1.19
2022-12-05T01:56:04.229Z,1.19
2022-12-05T01:57:04.300Z,1.19
2022-12-05T01:58:04.397Z,1.19
2022-12-05T01:59:04.226Z,1.19
2022-12-05T02:00:04.304Z,1.19
2022-12-05T02:01:04.344Z,1.19
2022-12-05T02:02:04.346Z,1.19
2022-12-05T02:03:04.310Z,1.19
2022-12-05T02:04:04.223Z,1.19
2022-12-05T02:05:04.136Z,1.19
2022-12-05T02:06:04.064Z,1.19
2022-12-05T02:07:03.898Z,1.19
2022-12-05T02:08:03.943Z,1.19
2022-12-05T02:09:03.747Z,1.19
2022-12-05T02:10:03.750Z,1.19
2022-12-05T02:11:03.581Z,1.19
2022-12-05T02:12:03.577Z,1.19
2022-12-05T02:13:03.665Z,1.19
2022-12-05T02:14:03.503Z,1.19
2022-12-05T02:15:03.498Z,1.19
2022-12-05T02:16:03.610Z,1.19
2022-12-05T02:17:03.574Z,1.19
2022-12-05T02:18:04.382Z,1.19
2022-12-05T02:19:04.390Z,1.19
2022-12-05T02:20:04.301Z,1.19
2022-12-05T02:21:04.220Z,1.19
2022-12-05T02:22:04.067Z,1.19
2022-12-05T02:23:04.063Z,1.19
2022-12-05T02:24:03.984Z,1.19
2022-12-05T02:25:03.896Z,1.19
2022-12-05T02:26:03.826Z,1.19
2022-12-05T02:27:03.741Z,1.19
2022-12-05T02:28:03.661Z,1.19
2022-12-05T02:29:03.665Z,1.19
2022-12-05T02:30:03.660Z,1.19
2022-12-05T02:31:03.731Z,1.19
2022-12-05T02:32:03.584Z,1.19
2022-12-05T02:33:03.417Z,1.19
2022-12-05T02:34:04.381Z,1.19
2022-12-05T02:35:04.223Z,1.19
2022-12-05T02:36:04.304Z,1.19
2022-12-05T02:37:04.141Z,1.19
2022-12-05T02:38:04.086Z,1.19
2022-12-05T02:39:03.904Z,1.19
2022-12-05T02:40:03.907Z,1.19
2022-12-05T02:41:03.820Z,1.19
2022-12-05T02:42:03.664Z,1.19
2022-12-05T02:43:03.675Z,1.19
2022-12-05T02:44:03.540Z,1.19
2022-12-05T02:45:03.427Z,1.19
2022-12-05T02:46:04.423Z,1.19
2022-12-05T02:47:04.216Z,1.19
2022-12-05T02:48:04.224Z,1.19
2022-12-05T02:49:04.067Z,1.19
2022-12-05T02:50:03.981Z,1.19
2022-12-05T02:51:03.821Z,1.19
2022-12-05T02:52:03.987Z,1.19
2022-12-05T02:53:03.911Z,1.19
2022-12-05T02:54:03.908Z,1.19
2022-12-05T02:55:03.746Z,1.19
2022-12-05T02:56:03.663Z,1.19
2022-12-05T02:57:03.511Z,1.19
2022-12-05T02:58:03.505Z,1.19
2022-12-05T02:59:04.375Z,1.19
2022-12-05T03:00:04.384Z,1.19
2022-12-05T03:01:04.249Z,1.19
2022-12-05T03:02:04.329Z,1.19
2022-12-05T03:03:04.057Z,1.19
2022-12-05T03:04:04.038Z,1.19
2022-12-05T03:05:04.062Z,1.19
2022-12-05T03:06:03.904Z,1.19
2022-12-05T03:07:03.823Z,1.19
2022-12-05T03:08:03.729Z,1.19
2022-12-05T03:09:03.756Z,1.19
2022-12-05T03:10:03.670Z,1.19
2022-12-05T03:11:03.514Z,1.19
2022-12-05T03:12:04.380Z,1.19
2022-12-05T03:13:04.307Z,1.19
2022-12-05T03:14:04.294Z,1.19
2022-12-05T03:15:04.220Z,1.19
2022-12-05T03:16:04.226Z,1.19
2022-12-05T03:17:04.257Z,1.19
2022-12-05T03:18:03.983Z,1.19
2022-12-05T03:19:03.993Z,1.19
2022-12-05T03:20:03.989Z,1.19
2022-12-05T03:21:03.821Z,1.19
2022-12-05T03:22:03.827Z,1.19
2022-12-05T03:23:03.741Z,1.19
2022-12-05T03:24:03.589Z,1.19
2022-12-05T03:25:03.581Z,1.19
2022-12-05T03:26:03.424Z,1.19
2022-12-05T03:27:04.383Z,1.19
2022-12-05T03:28:04.216Z,1.19
2022-12-05T03:29:04.221Z,1.19
2022-12-05T03:30:04.143Z,1.19
2022-12-05T03:31:04.172Z,1.19
2022-12-05T03:32:04.070Z,1.19
2022-12-05T03:33:03.828Z,1.19
2022-12-05T03:34:03.657Z,1.19
2022-12-05T03:35:03.670Z,1.19
2022-12-05T03:36:03.577Z,1.19
2022-12-05T03:37:03.657Z,1.19
2022-12-05T03:38:03.581Z,1.19
2022-12-05T03:39:03.618Z,1.19
2022-12-05T03:40:03.496Z,1.19
2022-12-05T03:41:03.423Z,1.19
2022-12-05T03:42:03.431Z,1.19
2022-12-05T03:43:03.422Z,1.19
2022-12-05T03:44:03.421Z,1.19
2022-12-05T03:45:04.469Z,1.19
2022-12-05T03:46:04.436Z,1.19
2022-12-05T03:47:04.384Z,1.19
2022-12-05T03:48:04.220Z,1.19
2022-12-05T03:49:04.145Z,1.19
2022-12-05T03:50:03.981Z,1.19
2022-12-05T03:51:03.905Z,1.19
2022-12-05T03:52:03.739Z,1.19
2022-12-05T03:53:20.538Z,1.19
2022-12-05T03:54:03.547Z,1.19
2022-12-05T03:55:03.575Z,1.19
2022-12-05T03:56:04.389Z,1.19
2022-12-05T03:57:04.468Z,1.19
2022-12-05T03:58:04.302Z,1.19
2022-12-05T03:59:04.345Z,1.19
2022-12-05T04:00:04.310Z,1.19
2022-12-05T04:01:04.273Z,1.19
2022-12-05T04:02:04.215Z,1.19
2022-12-05T04:03:04.168Z,1.19
2022-12-05T04:04:04.065Z,1.19
2022-12-05T04:05:03.988Z,1.19
2022-12-05T04:06:03.900Z,1.19
2022-12-05T04:07:03.823Z,1.19
2022-12-05T04:08:03.866Z,1.19
2022-12-05T04:09:03.742Z,1.19
2022-12-05T04:10:03.748Z,1.19
2022-12-05T04:11:03.576Z,1.19
2022-12-05T04:12:03.501Z,1.19
2022-12-05T04:13:03.427Z,1.19
2022-12-05T04:14:04.383Z,1.19
2022-12-05T04:15:04.221Z,1.19
2022-12-05T04:16:04.357Z,1.19
2022-12-05T04:17:04.141Z,1.19
2022-12-05T04:18:04.138Z,1.19
2022-12-05T04:19:03.985Z,1.19
2022-12-05T04:20:03.818Z,1.19
2022-12-05T04:21:03.745Z,1.19
2022-12-05T04:22:03.668Z,1.19
2022-12-05T04:23:03.501Z,1.19
2022-12-05T04:24:04.461Z,1.19
2022-12-05T04:25:04.307Z,1.19
2022-12-05T04:26:04.295Z,1.19
2022-12-05T04:27:04.380Z,1.19
2022-12-05T04:28:04.308Z,1.19
2022-12-05T04:29:04.225Z,1.19
2022-12-05T04:30:04.057Z,1.19
2022-12-05T04:31:04.080Z,1.19
2022-12-05T04:32:03.978Z,1.19
2022-12-05T04:33:04.062Z,1.19
2022-12-05T04:34:03.904Z,1.19
2022-12-05T04:35:03.818Z,1.19
2022-12-05T04:36:03.831Z,1.19
2022-12-05T04:37:03.743Z,1.19
2022-12-05T04:38:03.743Z,1.19
2022-12-05T04:39:03.932Z,1.19
2022-12-05T04:40:03.741Z,1.19
2022-12-05T04:41:03.664Z,1.19
2022-12-05T04:42:03.665Z,1.19
2022-12-05T04:43:03.590Z,1.19
2022-12-05T04:44:03.507Z,1.25
2022-12-05T04:45:03.501Z,1.19
2022-12-05T04:46:04.441Z,1.19
2022-12-05T04:47:04.397Z,1.25
2022-12-05T04:48:04.224Z,1.25
2022-12-05T04:49:04.217Z,1.19
2022-12-05T04:50:04.140Z,1.19
2022-12-05T04:51:04.140Z,1.19
2022-12-05T04:52:03.981Z,1.25
2022-12-05T04:53:04.097Z,1.19
2022-12-05T04:54:03.906Z,1.25
2022-12-05T04:55:03.824Z,1.25
2022-12-05T04:56:03.740Z,1.25
2022-12-05T04:57:03.667Z,1.25
2022-12-05T04:58:03.499Z,1.25
2022-12-05T04:59:03.504Z,1.25
2022-12-05T05:00:04.379Z,1.25
2022-12-05T05:01:04.378Z,1.25
2022-12-05T05:02:04.380Z,1.25
2022-12-05T05:03:04.270Z,1.25
2022-12-05T05:04:04.055Z,1.25
2022-12-05T05:05:04.496Z,1.25
2022-12-05T05:06:03.986Z,1.25
2022-12-05T05:07:04.068Z,1.25
2022-12-05T05:08:03.982Z,1.25
2022-12-05T05:09:03.830Z,1.25
2022-12-05T05:10:03.662Z,1.25
2022-12-05T05:11:03.584Z,1.25
2022-12-05T05:12:03.417Z,1.25
2022-12-05T05:13:03.424Z,1.25
2022-12-05T05:14:04.386Z,1.25
2022-12-05T05:15:04.299Z,1.25
2022-12-05T05:16:04.193Z,1.25
2022-12-05T05:17:04.059Z,1.25
2022-12-05T05:18:04.073Z,1.25
2022-12-05T05:19:03.976Z,1.25
2022-12-05T05:20:03.901Z,1.25
2022-12-05T05:21:03.832Z,1.25
2022-12-05T05:22:03.816Z,1.25
2022-12-05T05:23:03.744Z,1.25
2022-12-05T05:24:03.670Z,1.25
2022-12-05T05:25:03.988Z,1.25
2022-12-05T05:26:03.664Z,1.25
2022-12-05T05:27:03.746Z,1.25
2022-12-05T05:28:03.578Z,1.25
2022-12-05T05:29:03.576Z,1.25
2022-12-05T05:30:03.662Z,1.25
2022-12-05T05:31:03.674Z,1.25
2022-12-05T05:32:03.506Z,1.25
2022-12-05T05:33:03.423Z,1.25
2022-12-05T05:34:09.060Z,1.25
2022-12-05T05:35:03.500Z,1.25
2022-12-05T05:36:04.377Z,1.25
2022-12-05T05:37:04.383Z,1.25
2022-12-05T05:38:04.224Z,1.25
2022-12-05T05:39:04.215Z,1.31
2022-12-05T05:40:09.400Z,1.31
2022-12-05T05:41:04.070Z,1.31
2022-12-05T05:42:03.895Z,1.31
2022-12-05T05:43:03.905Z,1.31
2022-12-05T05:44:04.220Z,1.31
2022-12-05T05:45:04.148Z,1.31
2022-12-05T05:46:04.058Z,1.25
2022-12-05T05:47:04.051Z,1.31
2022-12-05T05:48:03.912Z,1.31
2022-12-05T05:49:03.898Z,1.31
2022-12-05T05:50:03.820Z,1.25
2022-12-05T05:51:03.654Z,1.25
2022-12-05T05:52:03.599Z,1.25
2022-12-05T05:53:03.603Z,1.25
2022-12-05T05:54:03.533Z,1.31
2022-12-05T05:55:03.426Z,1.31
2022-12-05T05:56:04.378Z,1.31
2022-12-05T05:57:04.389Z,1.31
2022-12-05T05:58:04.226Z,1.31
2022-12-05T05:59:04.149Z,1.31
2022-12-05T06:00:04.066Z,1.31
2022-12-05T06:01:03.986Z,1.31
2022-12-05T06:02:04.009Z,1.31
2022-12-05T06:03:04.196Z,1.31
2022-12-05T06:04:04.185Z,1.31
2022-12-05T06:05:03.900Z,1.31
2022-12-05T06:06:03.826Z,1.31
2022-12-05T06:07:03.832Z,1.31
2022-12-05T06:08:03.776Z,1.31
2022-12-05T06:09:03.831Z,1.31
2022-12-05T06:10:03.742Z,1.31
2022-12-05T06:11:03.741Z,1.31
2022-12-05T06:12:03.584Z,1.31
2022-12-05T06:13:03.416Z,1.31
2022-12-05T06:14:04.373Z,1.31
2022-12-05T06:15:04.296Z,1.31
2022-12-05T06:16:04.628Z,1.31
2022-12-05T06:17:04.141Z,1.31
2022-12-05T06:18:03.984Z,1.31
2022-12-05T06:19:03.904Z,1.31
2022-12-05T06:20:03.822Z,1.31
2022-12-05T06:21:03.663Z,1.31
2022-12-05T06:22:03.750Z,1.31
2022-12-05T06:23:03.753Z,1.31
2022-12-05T06:24:03.436Z,1.31
2022-12-05T06:25:04.389Z,1.31
2022-12-05T06:26:04.386Z,1.31
2022-12-05T06:27:04.223Z,1.31
2022-12-05T06:28:04.231Z,1.31
2022-12-05T06:29:04.059Z,1.31
2022-12-05T06:30:03.992Z,1.31
2022-12-05T06:31:03.948Z,1.31
2022-12-05T06:32:03.790Z,1.31
2022-12-05T06:33:03.761Z,1.38
2022-12-05T06:34:03.666Z,1.31
2022-12-05T06:35:03.492Z,1.31
2022-12-05T06:36:04.385Z,1.31
2022-12-05T06:37:04.393Z,1.38
2022-12-05T06:38:04.301Z,1.38
2022-12-05T06:39:04.302Z,1.38
2022-12-05T06:40:04.230Z,1.31
2022-12-05T06:41:04.154Z,1.38
2022-12-05T06:42:04.064Z,1.38
2022-12-05T06:43:04.071Z,1.38
2022-12-05T06:44:03.934Z,1.31
2022-12-05T06:45:03.815Z,1.38
2022-12-05T06:46:03.776Z,1.38
2022-12-05T06:47:03.746Z,1.38
2022-12-05T06:48:03.752Z,1.38
2022-12-05T06:49:03.664Z,1.38
2022-12-05T06:50:03.510Z,1.38
2022-12-05T06:51:03.420Z,1.38
2022-12-05T06:52:04.387Z,1.38
2022-12-05T06:53:04.381Z,1.38
2022-12-05T06:54:04.146Z,1.38
2022-12-05T06:55:04.239Z,1.38
2022-12-05T06:56:04.071Z,1.38
2022-12-05T06:57:03.986Z,1.38
2022-12-05T06:58:03.916Z,1.38
2022-12-05T06:59:03.821Z,1.38
2022-12-05T07:00:03.787Z,1.38
2022-12-05T07:01:03.846Z,1.38
2022-12-05T07:02:03.832Z,1.38
2022-12-05T07:03:03.744Z,1.38
2022-12-05T07:04:03.590Z,1.38
2022-12-05T07:05:03.502Z,1.38
2022-12-05T07:06:04.383Z,1.38
2022-12-05T07:07:04.330Z,1.38
2022-12-05T07:08:04.308Z,1.38
2022-12-05T07:09:04.061Z,1.38
2022-12-05T07:10:03.991Z,1.38
2022-12-05T07:11:03.906Z,1.38
2022-12-05T07:12:03.838Z,1.38
2022-12-05T07:13:03.905Z,1.38
2022-12-05T07:14:10.369Z,1.38
2022-12-05T07:15:03.661Z,1.38
2022-12-05T07:16:03.717Z,1.38
2022-12-05T07:17:03.756Z,1.38
2022-12-05T07:18:03.670Z,1.38
2022-12-05T07:19:03.513Z,1.44
2022-12-05T07:20:03.504Z,1.44
2022-12-05T07:21:12.762Z,1.44
2022-12-05T07:22:04.312Z,1.44
2022-12-05T07:23:04.146Z,1.44
2022-12-05T07:24:04.096Z,1.44
2022-12-05T07:25:03.987Z,1.44
2022-12-05T07:26:03.984Z,1.44
2022-12-05T07:27:04.012Z,1.44
2022-12-05T07:28:03.834Z,1.44
2022-12-05T07:29:03.897Z,1.44
2022-12-05T07:30:03.746Z,1.50
2022-12-05T07:31:03.580Z,1.44
2022-12-05T07:32:03.699Z,1.50
2022-12-05T07:33:04.469Z,1.50
2022-12-05T07:34:04.394Z,1.50
2022-12-05T07:35:04.233Z,1.50
2022-12-05T07:36:03.505Z,1.50
2022-12-05T07:37:04.306Z,1.50
2022-12-05T07:38:04.391Z,1.50
2022-12-05T07:39:04.216Z,1.50
2022-12-05T07:40:04.144Z,1.50
2022-12-05T07:41:05.941Z,1.50
2022-12-05T07:42:04.057Z,1.50
2022-12-05T07:43:04.067Z,1.50
2022-12-05T07:44:04.056Z,1.50
2022-12-05T07:45:03.980Z,1.50
2022-12-05T07:46:03.837Z,1.50
2022-12-05T07:47:03.820Z,1.50
2022-12-05T07:48:03.786Z,1.50
2022-12-05T07:49:03.584Z,1.50
2022-12-05T07:50:03.679Z,1.50
2022-12-05T07:51:03.585Z,1.50
2022-12-05T07:52:03.511Z,1.50
2022-12-05T07:53:03.524Z,1.56
2022-12-05T07:54:04.298Z,1.56
2022-12-05T07:55:04.223Z,1.56
2022-12-05T07:56:04.234Z,1.56
2022-12-05T07:57:04.241Z,1.56
2022-12-05T07:58:04.149Z,1.56
2022-12-05T07:59:04.064Z,1.56
2022-12-05T08:00:04.015Z,1.56
2022-12-05T08:01:03.955Z,1.62
2022-12-05T08:02:03.843Z,1.62
2022-12-05T08:03:03.872Z,1.62
2022-12-05T08:04:03.833Z,1.62
2022-12-05T08:05:04.069Z,1.62
2022-12-05T08:06:03.992Z,1.62
2022-12-05T08:07:03.977Z,1.62
2022-12-05T08:08:04.007Z,1.62
2022-12-05T08:09:03.826Z,1.62
2022-12-05T08:10:03.735Z,1.69
2022-12-05T08:11:03.665Z,1.69
2022-12-05T08:12:03.578Z,1.69
2022-12-05T08:13:04.377Z,1.69
2022-12-05T08:14:04.384Z,1.69
2022-12-05T08:15:04.227Z,1.69
2022-12-05T08:16:04.147Z,1.69
2022-12-05T08:17:04.182Z,1.69
2022-12-05T08:18:04.088Z,1.75
2022-12-05T08:19:03.901Z,1.75
2022-12-05T08:20:03.903Z,1.75
2022-12-05T08:21:03.755Z,1.75
2022-12-05T08:22:03.743Z,1.75
2022-12-05T08:23:03.666Z,1.75
2022-12-05T08:24:03.587Z,1.75
2022-12-05T08:25:03.601Z,1.75
2022-12-05T08:26:03.515Z,1.75
2022-12-05T08:27:04.393Z,1.75
2022-12-05T08:28:04.482Z,1.81
2022-12-05T08:29:04.223Z,1.81
2022-12-05T08:30:04.223Z,1.81
2022-12-05T08:31:04.307Z,1.81
2022-12-05T08:32:04.146Z,1.81
2022-12-05T08:33:04.061Z,1.81
2022-12-05T08:34:03.994Z,1.81
2022-12-05T08:35:03.511Z,1.88
2022-12-05T08:36:04.303Z,1.88
2022-12-05T08:37:04.312Z,1.88
2022-12-05T08:38:04.227Z,1.88
2022-12-05T08:39:04.171Z,1.94
2022-12-05T08:40:03.980Z,1.94
2022-12-05T08:41:03.990Z,1.94
2022-12-05T08:42:03.821Z,1.94
2022-12-05T08:43:03.668Z,1.94
2022-12-05T08:45:03.592Z,1.94
2022-12-05T08:46:03.456Z,2.00
2022-12-05T08:47:03.417Z,2.00
2022-12-05T08:48:03.424Z,2.00
2022-12-05T08:49:04.385Z,2.00
2022-12-05T08:50:04.302Z,2.00
2022-12-05T08:51:04.309Z,2.06
2022-12-05T08:52:04.308Z,2.06
2022-12-05T08:53:04.155Z,2.06
2022-12-05T08:54:03.984Z,2.06
2022-12-05T08:55:03.984Z,2.12
2022-12-05T08:56:03.913Z,2.12
2022-12-05T08:57:03.741Z,2.12
2022-12-05T08:58:03.668Z,2.12
2022-12-05T08:59:05.898Z,2.12
2022-12-05T09:00:03.424Z,2.19
2022-12-05T09:01:04.444Z,2.19
2022-12-05T09:02:04.435Z,2.19
2022-12-05T09:03:04.256Z,2.19
2022-12-05T09:04:03.994Z,2.25
2022-12-05T09:05:19.262Z,2.25
2022-12-05T09:06:03.988Z,2.25
2022-12-05T09:07:03.907Z,2.25
2022-12-05T09:08:03.855Z,2.25
2022-12-05T09:09:03.745Z,2.31
2022-12-05T09:10:03.663Z,2.31
2022-12-05T09:11:03.781Z,2.31
2022-12-05T09:12:03.672Z,2.31
2022-12-05T09:13:03.586Z,2.38
2022-12-05T09:14:03.508Z,2.38
2022-12-05T09:15:04.397Z,2.38
2022-12-05T09:16:04.569Z,2.38
2022-12-05T09:17:04.412Z,2.38
2022-12-05T09:18:03.581Z,2.44
2022-12-05T09:19:03.586Z,2.44
2022-12-05T09:20:03.539Z,2.44
2022-12-05T09:21:04.375Z,2.44
2022-12-05T09:22:04.297Z,2.44
2022-12-05T09:23:04.305Z,2.50
2022-12-05T09:24:04.225Z,2.50
2022-12-05T09:25:04.233Z,2.50
2022-12-05T09:26:04.147Z,2.50
2022-12-05T09:27:03.986Z,2.50
2022-12-05T09:28:03.979Z,2.50
2022-12-05T09:29:03.826Z,2.56
2022-12-05T09:30:03.742Z,2.56
2022-12-05T09:31:03.792Z,2.56
2022-12-05T09:32:03.590Z,2.56
2022-12-05T09:33:03.499Z,2.56
2022-12-05T09:34:03.508Z,2.56
2022-12-05T09:35:03.505Z,2.56
2022-12-05T09:36:04.470Z,2.56
2022-12-05T09:37:23.082Z,2.56
2022-12-05T09:38:04.299Z,2.56
2022-12-05T09:39:04.226Z,2.56
2022-12-05T09:40:04.224Z,2.56
2022-12-05T09:41:03.983Z,2.56
2022-12-05T09:42:03.903Z,2.56
2022-12-05T09:43:03.904Z,2.56
2022-12-05T09:44:03.828Z,2.56
2022-12-05T09:45:03.909Z,2.56
2022-12-05T09:46:03.797Z,2.56
2022-12-05T09:47:03.825Z,2.56
2022-12-05T09:48:03.671Z,2.56
2022-12-05T09:49:03.586Z,2.56
2022-12-05T09:50:03.430Z,2.56
2022-12-05T09:51:03.510Z,2.56
2022-12-05T09:52:04.474Z,2.56
2022-12-05T09:53:04.322Z,2.62
2022-12-05T09:54:04.239Z,2.56
2022-12-05T09:55:04.149Z,2.62
2022-12-05T09:56:04.007Z,2.62
2022-12-05T09:57:03.996Z,2.62
2022-12-05T09:58:03.916Z,2.62
2022-12-05T09:59:03.749Z,2.62
2022-12-05T10:00:03.831Z,2.62
2022-12-05T10:01:03.661Z,2.62
2022-12-05T10:02:03.724Z,2.62
2022-12-05T10:03:03.592Z,2.62
2022-12-05T10:04:03.502Z,2.62
2022-12-05T10:05:03.687Z,2.62
2022-12-05T10:06:04.380Z,2.62
2022-12-05T10:07:04.304Z,2.62
2022-12-05T10:08:04.451Z,2.62
2022-12-05T10:09:04.304Z,2.62
2022-12-05T10:10:04.146Z,2.62
2022-12-05T10:11:04.134Z,2.62
2022-12-05T10:12:04.095Z,2.62
2022-12-05T10:13:03.914Z,2.69
2022-12-05T10:14:03.818Z,2.69
2022-12-05T10:15:03.759Z,2.69
2022-12-05T10:16:03.756Z,2.69
2022-12-05T10:17:03.742Z,2.69
2022-12-05T10:18:03.580Z,2.69
2022-12-05T10:19:03.595Z,2.69
2022-12-05T10:20:03.504Z,2.69
2022-12-05T10:21:04.382Z,2.69
2022-12-05T10:22:04.311Z,2.75
2022-12-05T10:23:04.143Z,2.69
2022-12-05T10:24:04.218Z,2.75
2022-12-05T10:25:04.149Z,2.75
2022-12-05T10:26:03.972Z,2.75
2022-12-05T10:27:04.060Z,2.75
2022-12-05T10:28:04.067Z,2.75
2022-12-05T10:29:03.900Z,2.75
2022-12-05T10:30:03.666Z,2.75
2022-12-05T10:31:03.625Z,2.75
2022-12-05T10:32:03.426Z,2.75
2022-12-05T10:33:07.887Z,2.75
2022-12-05T10:34:04.390Z,2.75
2022-12-05T10:35:04.303Z,2.75
2022-12-05T10:36:04.145Z,2.75
2022-12-05T10:37:04.136Z,2.75
2022-12-05T10:38:04.065Z,2.75
2022-12-05T10:39:08.384Z,2.75
2022-12-05T10:40:04.144Z,2.81
2022-12-05T10:41:04.146Z,2.81
2022-12-05T10:42:03.985Z,2.81
2022-12-05T10:43:03.986Z,2.81
2022-12-05T10:44:03.902Z,2.81
2022-12-05T10:45:03.827Z,2.81
2022-12-05T10:46:03.697Z,2.81
2022-12-05T10:47:03.642Z,2.81
2022-12-05T10:48:03.418Z,2.81
2022-12-05T10:49:03.424Z,2.81
2022-12-05T10:50:04.407Z,2.81
2022-12-05T10:51:04.299Z,2.81
2022-12-05T10:52:04.304Z,2.81
2022-12-05T10:53:04.390Z,2.81
2022-12-05T10:54:04.303Z,2.81
2022-12-05T10:55:04.310Z,2.81
2022-12-05T10:56:29.657Z,2.81
2022-12-05T10:57:04.225Z,2.81
2022-12-05T10:58:04.139Z,2.81
2022-12-05T10:59:04.162Z,2.81
2022-12-05T11:00:04.004Z,2.81
2022-12-05T11:01:04.017Z,2.81
2022-12-05T11:02:03.986Z,2.81
2022-12-05T11:03:03.907Z,2.81
2022-12-05T11:04:05.951Z,2.81
2022-12-05T11:05:04.064Z,2.81
2022-12-05T11:06:03.835Z,2.81
2022-12-05T11:07:03.593Z,2.81
2022-12-05T11:08:04.482Z,2.81
2022-12-05T11:09:05.304Z,2.81
2022-12-05T11:10:04.482Z,2.81
2022-12-05T11:11:04.225Z,2.81
2022-12-05T11:12:04.150Z,2.81
2022-12-05T11:13:04.153Z,2.81
2022-12-05T11:14:04.070Z,2.81
2022-12-05T11:15:04.064Z,2.81
2022-12-05T11:16:04.040Z,2.81
2022-12-05T11:17:03.832Z,2.81
2022-12-05T11:18:03.751Z,2.81
2022-12-05T11:19:03.760Z,2.81
2022-12-05T11:20:03.747Z,2.81
2022-12-05T11:21:03.762Z,2.81
2022-12-05T11:22:04.381Z,2.81
2022-12-05T11:23:03.664Z,2.81
2022-12-05T11:24:03.669Z,2.88
2022-12-05T11:25:04.070Z,2.88
2022-12-05T11:26:03.906Z,2.88
2022-12-05T11:27:03.901Z,2.88
2022-12-05T11:28:03.743Z,2.88
2022-12-05T11:29:03.662Z,2.88
2022-12-05T11:30:03.588Z,2.88
2022-12-05T11:31:03.543Z,2.94
2022-12-05T11:32:04.377Z,2.94
2022-12-05T11:33:04.398Z,2.94
2022-12-05T11:34:04.226Z,2.94
2022-12-05T11:35:04.329Z,2.94
2022-12-05T11:36:04.306Z,2.94
2022-12-05T11:37:04.148Z,2.94
2022-12-05T11:38:03.988Z,3.00
2022-12-05T11:39:03.909Z,3.00
2022-12-05T11:40:03.904Z,3.00
2022-12-05T11:41:03.830Z,3.00
2022-12-05T11:42:03.821Z,3.00
2022-12-05T11:43:03.904Z,3.00
2022-12-05T11:44:03.910Z,3.00
2022-12-05T11:45:03.749Z,3.00
2022-12-05T11:46:03.846Z,3.00
2022-12-05T11:47:03.780Z,3.00
2022-12-05T11:48:03.659Z,3.00
2022-12-05T11:49:03.662Z,3.00
2022-12-05T11:50:03.510Z,3.00
2022-12-05T11:51:03.510Z,3.00
2022-12-05T11:52:03.590Z,3.00
2022-12-05T11:53:04.407Z,3.00
2022-12-05T11:54:04.307Z,3.00
2022-12-05T11:55:05.622Z,3.00
2022-12-05T11:56:04.304Z,3.00
2022-12-05T11:57:04.228Z,3.00
2022-12-05T11:58:04.060Z,3.00
2022-12-05T11:59:03.989Z,3.00
2022-12-05T12:00:03.903Z,3.00
2022-12-05T12:01:03.904Z,3.00
2022-12-05T12:02:03.900Z,3.00
2022-12-05T12:03:03.839Z,3.00
2022-12-05T12:04:03.589Z,3.00
2022-12-05T12:05:03.574Z,3.00
2022-12-05T12:06:03.585Z,3.00
2022-12-05T12:07:03.581Z,3.00
2022-12-05T12:08:03.689Z,3.00
2022-12-05T12:09:04.386Z,3.00
2022-12-05T12:10:08.415Z,3.00
2022-12-05T12:11:04.375Z,3.00
2022-12-05T12:12:04.306Z,3.00
2022-12-05T12:13:04.215Z,3.00
2022-12-05T12:14:04.213Z,3.00
2022-12-05T12:15:04.150Z,3.00
2022-12-05T12:16:08.188Z,3.00
2022-12-05T12:17:04.149Z,3.00
2022-12-05T12:18:03.904Z,3.00
2022-12-05T12:19:03.902Z,3.00
2022-12-05T12:20:03.819Z,3.00
2022-12-05T12:21:03.754Z,3.06
2022-12-05T12:22:03.667Z,3.06
2022-12-05T12:23:03.665Z,3.06
2022-12-05T12:24:08.817Z,3.06
2022-12-05T12:25:03.625Z,3.06
2022-12-05T12:26:03.799Z,3.06
2022-12-05T12:27:04.401Z,3.06
2022-12-05T12:28:04.760Z,3.06
2022-12-05T12:29:04.235Z,3.06
2022-12-05T12:30:04.065Z,3.06
2022-12-05T12:31:04.013Z,3.06
2022-12-05T12:32:03.977Z,3.06
2022-12-05T12:33:03.909Z,3.06
2022-12-05T12:34:03.826Z,3.06
2022-12-05T12:35:03.816Z,3.06
2022-12-05T12:36:03.580Z,3.06
2022-12-05T12:37:03.681Z,3.06
2022-12-05T12:38:03.599Z,3.06
2022-12-05T12:39:03.470Z,3.06
2022-12-05T12:40:04.480Z,3.06
2022-12-05T12:41:04.307Z,3.06
2022-12-05T12:42:04.225Z,3.06
2022-12-05T12:43:04.236Z,3.06
2022-12-05T12:44:04.231Z,3.06
2022-12-05T12:45:04.251Z,3.12
2022-12-05T12:46:08.066Z,3.12
2022-12-05T12:47:04.094Z,3.12
2022-12-05T12:48:03.905Z,3.12
2022-12-05T12:49:04.005Z,3.12
2022-12-05T12:50:03.996Z,3.12
2022-12-05T12:51:03.838Z,3.12
2022-12-05T12:52:03.751Z,3.12
2022-12-05T12:53:03.813Z,3.12
2022-12-05T12:54:03.589Z,3.12
2022-12-05T12:55:04.820Z,3.12
2022-12-05T12:56:03.602Z,3.12
2022-12-05T12:57:03.506Z,3.19
2022-12-05T12:58:04.383Z,3.19
2022-12-05T12:59:04.391Z,3.19
2022-12-05T13:00:04.383Z,3.19
2022-12-05T13:01:03.543Z,3.19
2022-12-05T13:02:09.649Z,3.19
2022-12-05T13:03:04.248Z,3.19
2022-12-05T13:04:04.243Z,3.25
2022-12-05T13:05:04.322Z,3.25
2022-12-05T13:06:04.146Z,3.25
2022-12-05T13:07:04.070Z,3.25
2022-12-05T13:08:04.083Z,3.25
2022-12-05T13:09:03.989Z,3.31
2022-12-05T13:10:03.985Z,3.31
2022-12-05T13:11:08.965Z,3.31
2022-12-05T13:12:03.903Z,3.31
2022-12-05T13:13:03.897Z,3.38
2022-12-05T13:14:03.935Z,3.38
2022-12-05T13:15:03.827Z,3.38
2022-12-05T13:16:03.805Z,3.38
2022-12-05T13:17:03.811Z,3.44
2022-12-05T13:18:03.670Z,3.44
2022-12-05T13:19:03.578Z,3.44